createdAt,value
2023-05-10T00:01:58.500Z,22.19
2023-05-10T00:04:29.686Z,22.17
2023-05-10T00:06:59.015Z,22.15
2023-05-10T00:09:28.122Z,22.14
2023-05-10T00:12:00.514Z,22.14
2023-05-10T00:14:29.812Z,22.15
2023-05-10T00:16:59.059Z,22.13
2023-05-10T00:19:28.814Z,22.11
2023-05-10T00:21:57.927Z,22.09
2023-05-10T00:24:27.301Z,22.08
2023-05-10T00:26:56.872Z,22.07
2023-05-10T00:29:27.962Z,22.03
2023-05-10T00:31:58.435Z,22.01
2023-05-10T00:34:27.937Z,21.99
2023-05-10T00:36:57.162Z,21.98
2023-05-10T00:39:26.477Z,21.97
2023-05-10T00:41:55.792Z,21.97
2023-05-10T00:44:25.080Z,21.98
2023-05-10T00:46:55.617Z,21.96
2023-05-10T00:49:25.273Z,21.98
2023-05-10T00:51:54.506Z,21.99
2023-05-10T00:54:23.718Z,22.01
2023-05-10T00:56:54.130Z,22.04
2023-05-10T00:59:24.103Z,22.06
2023-05-10T01:01:53.700Z,22.07
2023-05-10T01:04:27.586Z,22.10
2023-05-10T01:06:57.092Z,22.14
2023-05-10T01:09:58.852Z,22.19
2023-05-10T01:12:28.701Z,22.24
2023-05-10T01:14:58.198Z,22.29
2023-05-10T01:17:28.410Z,22.43
2023-05-10T01:19:58.280Z,22.58
2023-05-10T01:22:54.679Z,22.67
2023-05-10T01:25:48.960Z,22.76
2023-05-10T01:28:50.354Z,22.85
2023-05-10T01:31:55.931Z,22.97
2023-05-10T01:34:35.493Z,23.06
2023-05-10T01:37:13.447Z,23.17
2023-05-10T01:39:52.209Z,23.28
2023-05-10T01:42:29.668Z,23.49
2023-05-10T01:45:19.273Z,23.73
2023-05-10T01:48:04.763Z,24.13
2023-05-10T01:50:38.276Z,24.85
2023-05-10T01:53:10.911Z,25.67
2023-05-10T01:55:51.076Z,26.35
2023-05-10T01:58:25.241Z,26.71
2023-05-10T02:00:56.255Z,27.16
2023-05-10T02:03:28.393Z,27.65
2023-05-10T02:05:59.903Z,28.17
2023-05-10T02:08:29.557Z,28.70
2023-05-10T02:11:01.063Z,29.61
2023-05-10T02:13:32.423Z,30.38
2023-05-10T02:16:03.467Z,30.58
2023-05-10T02:18:35.692Z,31.53
2023-05-10T02:21:06.108Z,31.49
2023-05-10T02:23:37.104Z,31.28
2023-05-10T02:26:08.850Z,31.03
2023-05-10T02:28:39.652Z,30.81
2023-05-10T02:31:12.037Z,30.57
2023-05-10T02:33:43.314Z,30.44
2023-05-10T02:36:13.353Z,30.26
2023-05-10T02:38:43.368Z,30.20
2023-05-10T02:41:14.678Z,30.11
2023-05-10T02:43:45.604Z,29.95
2023-05-10T02:46:15.326Z,29.84
2023-05-10T02:48:44.537Z,29.66
2023-05-10T02:51:16.415Z,29.61
2023-05-10T02:53:48.747Z,29.58
2023-05-10T02:56:32.328Z,29.62
2023-05-10T02:59:02.029Z,29.67
2023-05-10T03:01:32.034Z,29.68
2023-05-10T03:04:01.427Z,29.48
2023-05-10T03:06:31.201Z,29.27
2023-05-10T03:09:00.377Z,29.18
2023-05-10T03:12:10.728Z,28.99
2023-05-10T03:15:04.039Z,28.88
2023-05-10T03:17:43.247Z,28.80
2023-05-10T03:20:25.492Z,28.55
2023-05-10T03:23:03.472Z,28.57
2023-05-10T03:25:34.202Z,28.44
2023-05-10T03:28:07.619Z,28.53
2023-05-10T03:30:38.768Z,28.59
2023-05-10T03:33:09.435Z,28.72
2023-05-10T03:35:41.926Z,28.75
2023-05-10T03:38:11.339Z,28.75
2023-05-10T03:40:41.377Z,28.76
2023-05-10T03:43:12.235Z,28.63
2023-05-10T03:45:42.174Z,28.64
2023-05-10T03:48:11.460Z,28.85
2023-05-10T03:50:40.698Z,28.71
2023-05-10T03:53:09.834Z,28.79
2023-05-10T03:55:39.415Z,28.89
2023-05-10T03:58:08.841Z,28.96
2023-05-10T04:00:37.941Z,28.88
2023-05-10T04:03:07.439Z,28.97
2023-05-10T04:05:36.510Z,29.19
2023-05-10T04:08:06.314Z,29.31
2023-05-10T04:10:36.502Z,29.10
2023-05-10T04:13:06.151Z,29.09
2023-05-10T04:15:35.570Z,29.08
2023-05-10T04:18:06.571Z,29.13
2023-05-10T04:20:37.644Z,29.04
2023-05-10T04:23:06.833Z,29.18
2023-05-10T04:25:37.585Z,29.37
2023-05-10T04:28:07.406Z,29.45
2023-05-10T04:30:36.971Z,29.53
2023-05-10T04:33:06.313Z,29.67
2023-05-10T04:35:36.338Z,29.71
2023-05-10T04:38:05.582Z,29.77
2023-05-10T04:40:34.820Z,29.51
2023-05-10T04:43:04.538Z,29.81
2023-05-10T04:45:33.723Z,29.89
2023-05-10T04:48:02.987Z,30.02
2023-05-10T04:50:32.364Z,30.16
2023-05-10T04:53:01.682Z,30.06
2023-05-10T04:55:30.939Z,30.18
2023-05-10T04:58:01.270Z,29.74
2023-05-10T05:00:30.554Z,29.38
2023-05-10T05:02:59.728Z,29.42
2023-05-10T05:05:29.253Z,29.26
2023-05-10T05:07:58.908Z,29.39
2023-05-10T05:10:27.983Z,29.52
2023-05-10T05:12:57.342Z,29.51
2023-05-10T05:15:26.508Z,29.70
2023-05-10T05:17:55.931Z,29.89
2023-05-10T05:20:25.519Z,29.94
2023-05-10T05:22:54.548Z,29.93
2023-05-10T05:25:23.842Z,30.17
2023-05-10T05:27:53.737Z,30.42
2023-05-10T05:30:23.332Z,30.57
2023-05-10T05:32:52.731Z,30.73
2023-05-10T05:35:22.202Z,30.83
2023-05-10T05:37:51.637Z,30.86
2023-05-10T05:40:22.625Z,31.09
2023-05-10T05:42:51.991Z,30.79
2023-05-10T05:45:21.451Z,30.65
2023-05-10T05:47:50.880Z,30.59
2023-05-10T05:50:19.977Z,30.59
2023-05-10T05:52:49.185Z,30.75
2023-05-10T05:55:18.738Z,30.61
2023-05-10T05:57:48.113Z,30.79
2023-05-10T06:00:18.187Z,30.97
2023-05-10T06:02:47.848Z,31.04
2023-05-10T06:05:17.344Z,30.94
2023-05-10T06:07:46.663Z,31.05
2023-05-10T06:10:15.886Z,30.98
2023-05-10T06:12:45.164Z,30.97
2023-05-10T06:15:14.736Z,30.87
2023-05-10T06:17:45.452Z,30.96
2023-05-10T06:20:15.419Z,31.04
2023-05-10T06:22:44.822Z,31.03
2023-05-10T06:25:14.572Z,30.76
2023-05-10T06:27:44.700Z,30.84
2023-05-10T06:30:17.232Z,30.83
2023-05-10T06:32:47.609Z,30.84
2023-05-10T06:35:18.638Z,30.80
2023-05-10T06:37:48.955Z,30.86
2023-05-10T06:40:18.759Z,30.92
2023-05-10T06:42:49.177Z,30.79
2023-05-10T06:45:20.214Z,31.10
2023-05-10T06:47:49.969Z,31.29
2023-05-10T06:50:19.462Z,31.24
2023-05-10T06:52:48.471Z,31.52
2023-05-10T06:55:18.247Z,31.53
2023-05-10T06:57:47.624Z,31.53
2023-05-10T07:00:18.108Z,31.87
2023-05-10T07:02:47.935Z,31.69
2023-05-10T07:05:17.494Z,31.45
2023-05-10T07:07:47.115Z,31.23
2023-05-10T07:10:16.236Z,31.29
2023-05-10T07:12:46.046Z,31.17
2023-05-10T07:15:15.534Z,31.38
2023-05-10T07:17:45.982Z,31.59
2023-05-10T07:20:16.655Z,31.73
2023-05-10T07:22:45.703Z,31.58
2023-05-10T07:25:15.231Z,31.74
2023-05-10T07:27:45.132Z,31.95
2023-05-10T07:30:15.162Z,31.78
2023-05-10T07:32:44.676Z,31.66
2023-05-10T07:35:14.444Z,31.79
2023-05-10T07:37:43.808Z,31.55
2023-05-10T07:40:13.212Z,31.50
2023-05-10T07:42:42.819Z,31.57
2023-05-10T07:45:12.090Z,31.68
2023-05-10T07:47:41.518Z,31.39
2023-05-10T07:50:10.894Z,31.51
2023-05-10T07:52:40.216Z,31.67
2023-05-10T07:55:10.084Z,31.41
2023-05-10T07:57:40.232Z,31.59
2023-05-10T08:00:10.720Z,31.39
2023-05-10T08:02:43.794Z,31.54
2023-05-10T08:05:13.891Z,31.87
2023-05-10T08:07:43.341Z,31.80
2023-05-10T08:10:15.580Z,31.76
2023-05-10T08:12:45.144Z,31.96
2023-05-10T08:15:14.318Z,32.40
2023-05-10T08:17:43.814Z,32.28
2023-05-10T08:20:14.818Z,32.15
2023-05-10T08:22:44.364Z,32.05
2023-05-10T08:25:13.449Z,31.80
2023-05-10T08:27:42.691Z,31.73
2023-05-10T08:30:12.583Z,31.84
2023-05-10T08:32:42.222Z,32.38
2023-05-10T08:35:11.397Z,32.49
2023-05-10T08:37:45.467Z,32.82
2023-05-10T08:40:16.010Z,32.65
2023-05-10T08:42:57.410Z,32.29
2023-05-10T08:45:30.798Z,32.05
2023-05-10T08:48:02.314Z,32.28
2023-05-10T08:50:32.865Z,31.92
2023-05-10T08:53:06.422Z,31.67
2023-05-10T08:55:38.745Z,31.40
2023-05-10T08:58:09.108Z,31.35
2023-05-10T09:00:39.798Z,31.19
2023-05-10T09:03:09.296Z,31.14
2023-05-10T09:05:39.768Z,31.16
2023-05-10T09:08:10.814Z,31.00
2023-05-10T09:10:42.414Z,30.79
2023-05-10T09:13:15.974Z,30.67
2023-05-10T09:15:47.353Z,30.68
2023-05-10T09:18:17.100Z,30.52
2023-05-10T09:20:47.112Z,30.56
2023-05-10T09:23:16.621Z,30.53
2023-05-10T09:25:45.689Z,30.59
2023-05-10T09:28:15.241Z,30.51
2023-05-10T09:30:45.213Z,30.38
2023-05-10T09:33:14.500Z,30.34
2023-05-10T09:35:44.559Z,30.33
2023-05-10T09:38:14.377Z,30.26
2023-05-10T09:40:56.295Z,30.25
2023-05-10T09:43:26.544Z,30.21
2023-05-10T09:45:55.815Z,30.28
2023-05-10T09:48:27.366Z,30.27
2023-05-10T09:51:00.457Z,30.15
2023-05-10T09:53:30.008Z,30.15
2023-05-10T09:55:59.805Z,30.20
2023-05-10T09:58:29.044Z,30.10
2023-05-10T10:00:59.107Z,30.04
2023-05-10T10:03:30.280Z,29.98
2023-05-10T10:06:00.063Z,30.12
2023-05-10T10:08:30.286Z,30.15
2023-05-10T10:10:59.999Z,30.13
2023-05-10T10:13:29.764Z,30.15
2023-05-10T10:15:59.195Z,30.11
2023-05-10T10:18:30.898Z,30.06
2023-05-10T10:21:01.281Z,30.06
2023-05-10T10:23:31.630Z,30.12
2023-05-10T10:26:02.382Z,30.03
2023-05-10T10:28:51.051Z,30.05
2023-05-10T10:31:21.003Z,29.96
2023-05-10T10:33:56.555Z,30.00
2023-05-10T10:36:29.414Z,30.10
2023-05-10T10:39:03.662Z,30.10
2023-05-10T10:41:38.395Z,30.08
2023-05-10T10:44:26.255Z,30.08
2023-05-10T10:47:14.157Z,30.02
2023-05-10T10:49:43.853Z,29.92
2023-05-10T10:52:40.538Z,29.98
2023-05-10T10:55:19.344Z,30.02
2023-05-10T10:58:03.026Z,30.11
2023-05-10T11:00:36.176Z,30.00
2023-05-10T11:03:09.283Z,29.91
2023-05-10T11:05:53.375Z,29.91
2023-05-10T11:08:36.950Z,29.89
2023-05-10T11:11:09.803Z,29.77
2023-05-10T11:13:52.463Z,29.86
2023-05-10T11:16:25.789Z,29.84
2023-05-10T11:19:04.941Z,29.83
2023-05-10T11:21:35.505Z,29.91
2023-05-10T11:24:16.760Z,29.79
2023-05-10T11:26:46.449Z,29.73
2023-05-10T11:29:16.221Z,29.72
2023-05-10T11:31:47.640Z,29.87
2023-05-10T11:34:35.345Z,29.84
2023-05-10T11:37:05.142Z,29.89
2023-05-10T11:39:35.597Z,29.83
2023-05-10T11:42:04.983Z,29.78
2023-05-10T11:44:35.536Z,29.70
2023-05-10T11:47:05.518Z,29.62
2023-05-10T11:49:34.947Z,29.51
2023-05-10T11:52:13.447Z,29.54
2023-05-10T11:54:54.245Z,29.57
2023-05-10T11:57:30.253Z,29.63
2023-05-10T11:59:59.826Z,29.65
2023-05-10T12:02:29.082Z,29.68
2023-05-10T12:04:59.394Z,29.73
2023-05-10T12:07:31.014Z,29.77
2023-05-10T12:10:19.822Z,29.76
2023-05-10T12:12:50.231Z,29.67
2023-05-10T12:15:24.318Z,29.61
2023-05-10T12:17:59.474Z,29.58
2023-05-10T12:20:30.851Z,29.52
2023-05-10T12:23:05.194Z,29.52
2023-05-10T12:25:37.087Z,29.47
2023-05-10T12:28:08.136Z,29.45
2023-05-10T12:30:39.459Z,29.42
2023-05-10T12:33:14.486Z,29.37
2023-05-10T12:35:49.812Z,29.32
2023-05-10T12:38:32.957Z,29.20
2023-05-10T12:41:04.530Z,29.07
2023-05-10T12:43:34.262Z,29.07
2023-05-10T12:46:15.127Z,29.04
2023-05-10T12:48:48.455Z,29.06
2023-05-10T12:51:21.482Z,29.08
2023-05-10T12:53:50.805Z,29.09
2023-05-10T12:56:19.884Z,29.11
2023-05-10T12:58:50.224Z,29.08
2023-05-10T13:01:19.524Z,29.09
2023-05-10T13:03:48.706Z,29.09
2023-05-10T13:06:18.283Z,29.09
2023-05-10T13:08:47.431Z,29.08
2023-05-10T13:11:19.068Z,29.03
2023-05-10T13:13:48.590Z,29.00
2023-05-10T13:16:17.684Z,28.95
2023-05-10T13:18:47.185Z,28.93
2023-05-10T13:21:16.463Z,28.88
2023-05-10T13:23:46.223Z,28.81
2023-05-10T13:26:15.447Z,28.75
2023-05-10T13:28:44.727Z,28.70
2023-05-10T13:31:13.981Z,28.64
2023-05-10T13:33:43.166Z,28.62
2023-05-10T13:36:12.769Z,28.55
2023-05-10T13:38:42.413Z,28.49
2023-05-10T13:41:13.387Z,28.41
2023-05-10T13:43:43.273Z,28.28
2023-05-10T13:46:12.810Z,28.16
2023-05-10T13:48:41.899Z,28.03
2023-05-10T13:51:11.530Z,27.91
2023-05-10T13:53:40.596Z,27.85
2023-05-10T13:56:10.078Z,27.82
2023-05-10T13:58:39.423Z,27.77
2023-05-10T14:01:08.675Z,27.71
2023-05-10T14:03:38.527Z,27.69
2023-05-10T14:06:09.393Z,27.65
2023-05-10T14:08:39.161Z,27.60
2023-05-10T14:11:08.621Z,27.54
2023-05-10T14:13:37.816Z,27.49
2023-05-10T14:16:07.663Z,27.44
2023-05-10T14:18:37.367Z,27.40
2023-05-10T14:21:06.876Z,27.37
2023-05-10T14:23:35.880Z,27.34
2023-05-10T14:26:05.266Z,27.32
2023-05-10T14:28:35.353Z,27.29
2023-05-10T14:31:04.650Z,27.25
2023-05-10T14:33:34.285Z,27.19
2023-05-10T14:36:05.519Z,27.16
2023-05-10T14:38:35.012Z,27.12
2023-05-10T14:41:04.733Z,27.08
2023-05-10T14:43:33.787Z,27.05
2023-05-10T14:46:03.206Z,27.02
2023-05-10T14:48:33.058Z,26.97
2023-05-10T14:51:02.712Z,26.95
2023-05-10T14:53:32.050Z,26.92
2023-05-10T14:56:03.358Z,26.87
2023-05-10T14:58:34.288Z,26.85
2023-05-10T15:01:03.894Z,26.80
2023-05-10T15:03:34.202Z,26.79
2023-05-10T15:06:03.981Z,26.75
2023-05-10T15:08:33.033Z,26.75
2023-05-10T15:11:03.717Z,26.71
2023-05-10T15:13:32.960Z,26.68
2023-05-10T15:16:02.177Z,26.64
2023-05-10T15:18:32.021Z,26.64
2023-05-10T15:21:01.345Z,26.61
2023-05-10T15:23:31.998Z,26.56
2023-05-10T15:26:02.318Z,26.57
2023-05-10T15:28:33.645Z,26.57
2023-05-10T15:31:03.903Z,26.54
2023-05-10T15:33:33.049Z,26.51
2023-05-10T15:36:02.346Z,26.49
2023-05-10T15:38:31.554Z,26.46
2023-05-10T15:41:01.349Z,26.47
2023-05-10T15:43:30.396Z,26.44
2023-05-10T15:45:59.715Z,26.41
2023-05-10T15:48:28.985Z,26.41
2023-05-10T15:50:59.169Z,26.38
2023-05-10T15:53:28.598Z,26.38
2023-05-10T15:55:58.979Z,26.36
2023-05-10T15:58:28.932Z,26.35
2023-05-10T16:00:58.940Z,26.29
2023-05-10T16:03:29.059Z,26.28
2023-05-10T16:05:58.756Z,26.26
2023-05-10T16:08:31.722Z,26.23
2023-05-10T16:11:02.030Z,26.22
2023-05-10T16:13:32.155Z,26.19
2023-05-10T16:16:01.578Z,26.18
2023-05-10T16:18:31.304Z,26.18
2023-05-10T16:21:03.024Z,26.15
2023-05-10T16:23:32.350Z,26.13
2023-05-10T16:26:01.519Z,26.12
2023-05-10T16:28:31.280Z,26.10
2023-05-10T16:31:00.732Z,26.11
2023-05-10T16:33:30.180Z,26.09
2023-05-10T16:35:59.970Z,26.07
2023-05-10T16:38:30.030Z,26.06
2023-05-10T16:41:00.162Z,26.05
2023-05-10T16:43:30.551Z,26.04
2023-05-10T16:46:01.075Z,26.02
2023-05-10T16:48:31.251Z,25.99
2023-05-10T16:51:01.251Z,25.97
2023-05-10T16:53:31.175Z,25.96
2023-05-10T16:56:01.313Z,25.91
2023-05-10T16:58:32.259Z,25.91
2023-05-10T17:01:02.836Z,25.89
2023-05-10T17:03:33.139Z,25.86
2023-05-10T17:06:04.607Z,25.85
2023-05-10T17:08:35.039Z,25.85
2023-05-10T17:11:05.896Z,25.83
2023-05-10T17:13:36.574Z,25.82
2023-05-10T17:16:07.780Z,25.81
2023-05-10T17:18:38.554Z,25.82
2023-05-10T17:21:08.966Z,25.81
2023-05-10T17:23:40.599Z,25.79
2023-05-10T17:26:11.534Z,25.76
2023-05-10T17:28:43.681Z,25.74
2023-05-10T17:31:14.291Z,25.70
2023-05-10T17:33:44.841Z,25.70
2023-05-10T17:36:15.207Z,25.66
2023-05-10T17:38:45.943Z,25.64
2023-05-10T17:41:17.009Z,25.59
2023-05-10T17:43:48.293Z,25.58
2023-05-10T17:46:19.411Z,25.53
2023-05-10T17:48:50.527Z,25.50
2023-05-10T17:51:22.065Z,25.49
2023-05-10T17:53:56.012Z,25.45
2023-05-10T17:56:26.877Z,25.41
2023-05-10T17:58:57.483Z,25.43
2023-05-10T18:01:28.173Z,25.41
2023-05-10T18:03:59.889Z,25.38
2023-05-10T18:06:31.007Z,25.40
2023-05-10T18:09:02.157Z,25.38
2023-05-10T18:11:33.274Z,25.38
2023-05-10T18:14:03.964Z,25.37
2023-05-10T18:16:35.930Z,25.36
2023-05-10T18:19:07.034Z,25.33
2023-05-10T18:21:39.911Z,25.30
2023-05-10T18:24:11.242Z,25.30
2023-05-10T18:26:41.881Z,25.29
2023-05-10T18:29:12.569Z,25.26
2023-05-10T18:31:43.244Z,25.26
2023-05-10T18:34:13.877Z,25.23
2023-05-10T18:36:45.729Z,25.20
2023-05-10T18:39:19.808Z,25.18
2023-05-10T18:41:50.851Z,25.14
2023-05-10T18:44:21.241Z,25.16
2023-05-10T18:46:55.132Z,25.16
2023-05-10T18:49:26.152Z,25.11
2023-05-10T18:51:56.964Z,25.10
2023-05-10T18:54:28.133Z,25.06
2023-05-10T18:57:00.349Z,25.05
2023-05-10T18:59:33.368Z,25.03
2023-05-10T19:02:04.391Z,24.99
2023-05-10T19:04:34.939Z,24.96
2023-05-10T19:07:05.785Z,24.92
2023-05-10T19:09:36.053Z,24.89
2023-05-10T19:12:07.436Z,24.86
2023-05-10T19:14:37.917Z,24.84
2023-05-10T19:17:09.952Z,24.82
2023-05-10T19:19:40.434Z,24.81
2023-05-10T19:22:11.202Z,24.81
2023-05-10T19:24:41.389Z,24.80
2023-05-10T19:27:11.198Z,24.79
2023-05-10T19:29:40.718Z,24.76
2023-05-10T19:32:10.577Z,24.72
2023-05-10T19:34:40.599Z,24.69
2023-05-10T19:37:10.130Z,24.68
2023-05-10T19:39:40.186Z,24.64
2023-05-10T19:42:09.689Z,24.63
2023-05-10T19:44:39.590Z,24.61
2023-05-10T19:47:09.986Z,24.62
2023-05-10T19:49:40.045Z,24.60
2023-05-10T19:52:11.714Z,24.58
2023-05-10T19:54:41.183Z,24.59
2023-05-10T19:57:11.362Z,24.56
2023-05-10T19:59:41.660Z,24.57
2023-05-10T20:02:10.788Z,24.56
2023-05-10T20:04:40.279Z,24.53
2023-05-10T20:07:09.590Z,24.53
2023-05-10T20:09:38.905Z,24.51
2023-05-10T20:12:08.287Z,24.50
2023-05-10T20:14:37.705Z,24.47
2023-05-10T20:17:07.348Z,24.45
2023-05-10T20:19:37.367Z,24.41
2023-05-10T20:22:06.414Z,24.38
2023-05-10T20:24:35.817Z,24.36
2023-05-10T20:27:05.722Z,24.34
2023-05-10T20:29:35.141Z,24.32
2023-05-10T20:32:04.924Z,24.28
2023-05-10T20:34:36.790Z,24.28
2023-05-10T20:37:06.142Z,24.24
2023-05-10T20:39:35.233Z,24.23
2023-05-10T20:42:05.249Z,24.21
2023-05-10T20:44:34.620Z,24.20
2023-05-10T20:47:04.083Z,24.17
2023-05-10T20:49:33.737Z,24.16
2023-05-10T20:52:03.085Z,24.12
2023-05-10T20:54:32.264Z,24.12
2023-05-10T20:57:03.322Z,24.10
2023-05-10T20:59:32.875Z,24.08
2023-05-10T21:02:02.407Z,24.05
2023-05-10T21:04:31.668Z,24.02
2023-05-10T21:07:01.374Z,24.00
2023-05-10T21:09:30.842Z,23.95
2023-05-10T21:12:00.088Z,23.92
2023-05-10T21:14:30.192Z,23.87
2023-05-10T21:16:59.441Z,23.83
2023-05-10T21:19:28.716Z,23.79
2023-05-10T21:22:00.204Z,23.77
2023-05-10T21:24:29.430Z,23.73
2023-05-10T21:26:58.795Z,23.71
2023-05-10T21:29:28.542Z,23.68
2023-05-10T21:31:58.151Z,23.68
2023-05-10T21:34:27.939Z,23.68
2023-05-10T21:36:57.154Z,23.66
2023-05-10T21:39:26.544Z,23.64
2023-05-10T21:41:55.813Z,23.62
2023-05-10T21:44:24.986Z,23.61
2023-05-10T21:46:54.309Z,23.61
2023-05-10T21:49:23.602Z,23.59
2023-05-10T21:51:53.435Z,23.57
2023-05-10T21:54:22.686Z,23.58
2023-05-10T21:56:52.165Z,23.55
2023-05-10T21:59:22.814Z,23.51
2023-05-10T22:01:52.316Z,23.52
2023-05-10T22:04:21.658Z,23.50
2023-05-10T22:06:50.830Z,23.49
2023-05-10T22:09:20.858Z,23.52
2023-05-10T22:11:50.161Z,23.54
2023-05-10T22:14:19.332Z,23.55
2023-05-10T22:16:48.795Z,23.55
2023-05-10T22:19:18.330Z,23.55
2023-05-10T22:21:47.672Z,23.53
2023-05-10T22:24:17.166Z,23.50
2023-05-10T22:26:46.992Z,23.46
2023-05-10T22:29:16.303Z,23.42
2023-05-10T22:31:45.527Z,23.36
2023-05-10T22:34:14.799Z,23.33
2023-05-10T22:36:45.767Z,23.31
2023-05-10T22:39:15.173Z,23.29
2023-05-10T22:41:44.579Z,23.25
2023-05-10T22:44:13.929Z,23.25
2023-05-10T22:46:43.290Z,23.24
2023-05-10T22:49:12.540Z,23.23
2023-05-10T22:51:41.879Z,23.21
2023-05-10T22:54:11.150Z,23.22
2023-05-10T22:56:40.430Z,23.22
2023-05-10T22:59:10.348Z,23.21
2023-05-10T23:01:39.576Z,23.20
2023-05-10T23:04:09.121Z,23.18
2023-05-10T23:06:38.454Z,23.18
2023-05-10T23:09:07.896Z,23.17
2023-05-10T23:11:37.863Z,23.15
2023-05-10T23:14:07.557Z,23.16
2023-05-10T23:16:37.652Z,23.17
2023-05-10T23:19:06.960Z,23.17
2023-05-10T23:21:36.319Z,23.15
2023-05-10T23:24:05.865Z,23.18
2023-05-10T23:26:35.468Z,23.14
2023-05-10T23:29:04.780Z,23.16
2023-05-10T23:31:34.411Z,23.14
2023-05-10T23:34:04.535Z,23.14
2023-05-10T23:36:34.566Z,23.13
2023-05-10T23:39:04.260Z,23.14
2023-05-10T23:41:33.817Z,23.17
2023-05-10T23:44:06.385Z,23.15
2023-05-10T23:46:35.741Z,23.16
2023-05-10T23:49:05.141Z,23.14
2023-05-10T23:51:34.421Z,23.16
2023-05-10T23:54:03.795Z,23.16
2023-05-10T23:56:33.358Z,23.14
2023-05-10T23:59:02.780Z,23.12
